createdAt,value
2023-03-06T00:00:38.627Z,97806.78
2023-03-06T00:03:06.584Z,97827.69
2023-03-06T00:05:33.735Z,97785.28
2023-03-06T00:08:00.760Z,97815.88
2023-03-06T00:10:30.703Z,97818.53
2023-03-06T00:13:00.519Z,97821.84
2023-03-06T00:15:28.437Z,97811.81
2023-03-06T00:17:56.063Z,97828.66
2023-03-06T00:20:24.167Z,97803.56
2023-03-06T00:22:51.426Z,97816.41
2023-03-06T00:25:20.920Z,97833.56
2023-03-06T00:27:48.520Z,97812.88
2023-03-06T00:30:19.706Z,97816.97
2023-03-06T00:32:47.190Z,97819.13
2023-03-06T00:35:15.507Z,97813.59
2023-03-06T00:37:44.224Z,97800.91
2023-03-06T00:40:14.386Z,97826.00
2023-03-06T00:42:42.580Z,97829.69
2023-03-06T00:45:09.985Z,97810.44
2023-03-06T00:47:37.173Z,97825.28
2023-03-06T00:50:04.994Z,97834.03
2023-03-06T00:52:32.106Z,97813.28
2023-03-06T00:54:59.231Z,97820.56
2023-03-06T00:57:26.242Z,97817.41
2023-03-06T00:59:53.109Z,97822.13
2023-03-06T01:02:21.699Z,97832.63
2023-03-06T01:04:49.591Z,97819.41
2023-03-06T01:07:16.688Z,97810.44
2023-03-06T01:09:44.604Z,97833.41
2023-03-06T01:12:11.625Z,97822.63
2023-03-06T01:14:38.794Z,97830.34
2023-03-06T01:17:05.925Z,97800.81
2023-03-06T01:19:32.771Z,97821.00
2023-03-06T01:21:59.680Z,97824.56
2023-03-06T01:24:26.646Z,97842.59
2023-03-06T01:26:56.594Z,97829.75
2023-03-06T01:29:23.482Z,97816.09
2023-03-06T01:31:50.535Z,97821.28
2023-03-06T01:34:17.632Z,97819.59
2023-03-06T01:36:44.733Z,97828.22
2023-03-06T01:39:11.732Z,97842.22
2023-03-06T01:41:38.617Z,97837.09
2023-03-06T01:44:05.543Z,97860.94
2023-03-06T01:46:37.148Z,97840.31
2023-03-06T01:49:21.992Z,97841.50
2023-03-06T01:52:02.057Z,97831.06
2023-03-06T01:54:33.137Z,97820.06
2023-03-06T01:57:05.828Z,97840.25
2023-03-06T01:59:36.716Z,97827.03
2023-03-06T02:02:06.827Z,97830.94
2023-03-06T02:04:35.466Z,97832.00
2023-03-06T02:07:03.455Z,97832.16
2023-03-06T02:09:34.278Z,97839.56
2023-03-06T02:12:03.221Z,97835.75
2023-03-06T02:14:30.450Z,97848.75
2023-03-06T02:16:57.959Z,97833.91
2023-03-06T02:19:43.017Z,97835.13
2023-03-06T02:22:11.279Z,97809.63
2023-03-06T02:24:54.021Z,97828.03
2023-03-06T02:27:21.267Z,97829.47
2023-03-06T02:29:51.051Z,97827.88
2023-03-06T02:32:18.258Z,97838.72
2023-03-06T02:34:55.809Z,97853.91
2023-03-06T02:37:25.511Z,97835.19
2023-03-06T02:40:09.969Z,97820.16
2023-03-06T02:42:37.073Z,97836.09
2023-03-06T02:45:07.625Z,97824.44
2023-03-06T02:47:34.884Z,97856.94
2023-03-06T02:50:01.763Z,97837.81
2023-03-06T02:52:28.788Z,97861.13
2023-03-06T02:54:56.568Z,97872.03
2023-03-06T02:57:23.941Z,97848.56
2023-03-06T02:59:50.854Z,97848.97
2023-03-06T03:02:18.874Z,97842.19
2023-03-06T03:04:45.826Z,97845.66
2023-03-06T03:07:12.926Z,97875.16
2023-03-06T03:09:40.383Z,97848.28
2023-03-06T03:12:08.124Z,97872.91
2023-03-06T03:14:35.233Z,97857.94
2023-03-06T03:17:03.887Z,97857.88
2023-03-06T03:19:30.924Z,97852.84
2023-03-06T03:21:58.038Z,97854.47
2023-03-06T03:24:25.641Z,97856.53
2023-03-06T03:26:54.282Z,97865.09
2023-03-06T03:29:23.634Z,97862.47
2023-03-06T03:31:50.955Z,97834.91
2023-03-06T03:34:18.038Z,97867.38
2023-03-06T03:36:45.812Z,97864.59
2023-03-06T03:39:13.862Z,97867.47
2023-03-06T03:41:42.161Z,97853.66
2023-03-06T03:44:10.517Z,97880.91
2023-03-06T03:46:38.128Z,97875.47
2023-03-06T03:49:09.786Z,97861.25
2023-03-06T03:51:37.714Z,97867.72
2023-03-06T03:54:05.689Z,97853.66
2023-03-06T03:56:37.313Z,97861.00
2023-03-06T03:59:10.290Z,97878.56
2023-03-06T04:01:44.777Z,97874.44
2023-03-06T04:04:12.704Z,97875.69
2023-03-06T04:06:41.260Z,97885.91
2023-03-06T04:09:08.358Z,97880.50
2023-03-06T04:11:36.694Z,97889.28
2023-03-06T04:14:03.765Z,97877.31
2023-03-06T04:16:31.422Z,97881.88
2023-03-06T04:18:58.463Z,97888.59
2023-03-06T04:21:25.358Z,97879.59
2023-03-06T04:23:52.458Z,97897.28
2023-03-06T04:26:20.158Z,97880.88
2023-03-06T04:28:47.218Z,97889.75
2023-03-06T04:31:14.893Z,97875.53
2023-03-06T04:33:42.818Z,97901.47
2023-03-06T04:36:25.281Z,97882.09
2023-03-06T04:38:54.324Z,97888.88
2023-03-06T04:41:21.485Z,97897.84
2023-03-06T04:43:48.700Z,97880.69
2023-03-06T04:46:15.688Z,97878.53
2023-03-06T04:48:42.768Z,97899.50
2023-03-06T04:51:14.216Z,97902.13
2023-03-06T04:53:41.352Z,97887.72
2023-03-06T04:56:08.964Z,97886.97
2023-03-06T04:58:36.041Z,97960.00
2023-03-06T05:01:03.106Z,97898.38
2023-03-06T05:03:30.479Z,97898.47
2023-03-06T05:05:57.464Z,97900.41
2023-03-06T05:08:24.540Z,97906.47
2023-03-06T05:11:01.453Z,97842.09
2023-03-06T05:13:28.714Z,97904.44
2023-03-06T05:15:55.932Z,97896.00
2023-03-06T05:18:22.908Z,97886.00
2023-03-06T05:20:49.841Z,97898.66
2023-03-06T05:23:16.790Z,97901.13
2023-03-06T05:25:43.718Z,97903.13
2023-03-06T05:28:10.782Z,97925.94
2023-03-06T05:30:37.713Z,97925.22
2023-03-06T05:33:04.658Z,97910.38
2023-03-06T05:35:31.958Z,97918.91
2023-03-06T05:37:58.903Z,97923.03
2023-03-06T05:40:26.409Z,97915.44
2023-03-06T05:42:53.524Z,97910.50
2023-03-06T05:45:20.458Z,97906.19
2023-03-06T05:47:47.498Z,97917.94
2023-03-06T05:50:14.481Z,97896.53
2023-03-06T05:52:41.699Z,97933.06
2023-03-06T05:55:11.661Z,97912.03
2023-03-06T05:57:38.720Z,97940.56
2023-03-06T06:00:06.496Z,97907.56
2023-03-06T06:02:39.847Z,97962.94
2023-03-06T06:05:07.459Z,97923.03
2023-03-06T06:07:34.297Z,97941.63
2023-03-06T06:10:03.643Z,97939.13
2023-03-06T06:12:31.347Z,97934.97
2023-03-06T06:14:58.327Z,97921.03
2023-03-06T06:17:25.317Z,97936.53
2023-03-06T06:19:52.342Z,97930.69
2023-03-06T06:22:19.303Z,97935.97
2023-03-06T06:24:46.321Z,97923.69
2023-03-06T06:27:13.177Z,97924.22
2023-03-06T06:29:40.223Z,97939.25
2023-03-06T06:32:07.445Z,97928.06
2023-03-06T06:34:34.412Z,97901.41
2023-03-06T06:37:01.262Z,97938.22
2023-03-06T06:39:28.439Z,97945.50
2023-03-06T06:42:14.587Z,97955.59
2023-03-06T06:44:42.453Z,97936.88
2023-03-06T06:47:25.752Z,97926.56
2023-03-06T06:49:55.110Z,97936.66
2023-03-06T06:52:23.834Z,97928.47
2023-03-06T06:54:51.652Z,97929.97
2023-03-06T06:57:18.849Z,97940.38
2023-03-06T06:59:45.897Z,97937.41
2023-03-06T07:02:14.820Z,97908.28
2023-03-06T07:04:52.758Z,97922.78
2023-03-06T07:07:25.434Z,97938.84
2023-03-06T07:09:53.177Z,97934.19
2023-03-06T07:12:20.112Z,97948.16
2023-03-06T07:14:47.070Z,97950.00
2023-03-06T07:17:14.231Z,97956.41
2023-03-06T07:19:41.079Z,97957.13
2023-03-06T07:22:08.196Z,97954.88
2023-03-06T07:24:35.572Z,97923.78
2023-03-06T07:27:02.521Z,97959.72
2023-03-06T07:29:29.472Z,97941.97
2023-03-06T07:31:56.620Z,97947.28
2023-03-06T07:34:23.656Z,97942.84
2023-03-06T07:36:50.626Z,97949.97
2023-03-06T07:39:17.731Z,97942.56
2023-03-06T07:41:44.806Z,97958.78
2023-03-06T07:44:11.695Z,97933.56
2023-03-06T07:46:38.849Z,97949.66
2023-03-06T07:49:05.814Z,97934.22
2023-03-06T07:51:32.864Z,97931.06
2023-03-06T07:53:59.936Z,97947.09
2023-03-06T07:56:26.991Z,97946.47
2023-03-06T07:58:55.321Z,97944.03
2023-03-06T08:01:23.083Z,97952.25
2023-03-06T08:03:50.615Z,97960.75
2023-03-06T08:06:21.344Z,97952.44
2023-03-06T08:08:49.378Z,97964.91
2023-03-06T08:11:18.622Z,97965.16
2023-03-06T08:13:46.122Z,97959.03
2023-03-06T08:16:13.093Z,97947.94
2023-03-06T08:18:40.077Z,97974.25
2023-03-06T08:21:16.207Z,97954.84
2023-03-06T08:23:44.349Z,97970.44
2023-03-06T08:26:17.268Z,97955.56
2023-03-06T08:28:46.416Z,97976.66
2023-03-06T08:31:30.252Z,97980.75
2023-03-06T08:33:59.544Z,97952.94
2023-03-06T08:36:27.089Z,97951.72
2023-03-06T08:38:57.900Z,97968.44
2023-03-06T08:41:25.262Z,97969.03
2023-03-06T08:43:52.364Z,97931.34
2023-03-06T08:46:21.654Z,97949.81
2023-03-06T08:48:48.494Z,97950.09
2023-03-06T08:51:16.281Z,97957.84
2023-03-06T08:53:44.543Z,97950.91
2023-03-06T08:56:18.989Z,97978.00
2023-03-06T08:58:46.504Z,97946.59
2023-03-06T09:01:18.956Z,97956.66
2023-03-06T09:03:46.334Z,97944.13
2023-03-06T09:06:14.082Z,97961.81
2023-03-06T09:08:41.469Z,97957.63
2023-03-06T09:11:08.770Z,97967.38
2023-03-06T09:13:35.803Z,97947.41
2023-03-06T09:16:02.759Z,97962.31
2023-03-06T09:18:30.088Z,97957.16
2023-03-06T09:20:56.950Z,97969.41
2023-03-06T09:23:23.935Z,97967.47
2023-03-06T09:25:54.971Z,97978.72
2023-03-06T09:28:21.945Z,97953.50
2023-03-06T09:30:48.845Z,97971.44
2023-03-06T09:33:16.410Z,97946.16
2023-03-06T09:35:55.184Z,97979.63
2023-03-06T09:38:25.389Z,97964.03
2023-03-06T09:41:10.677Z,97970.03
2023-03-06T09:43:45.624Z,97964.09
2023-03-06T09:46:37.598Z,97962.16
2023-03-06T09:49:32.869Z,97975.97
2023-03-06T09:52:15.061Z,97960.72
2023-03-06T09:54:54.980Z,97968.44
2023-03-06T09:57:26.840Z,97978.88
2023-03-06T09:59:58.258Z,97987.84
2023-03-06T10:02:50.670Z,97975.25
2023-03-06T10:05:26.376Z,97993.06
2023-03-06T10:08:00.418Z,98009.16
2023-03-06T10:10:40.972Z,97980.47
2023-03-06T10:13:25.039Z,97987.19
2023-03-06T10:15:59.788Z,97983.41
2023-03-06T10:18:26.833Z,97992.41
2023-03-06T10:21:17.061Z,97995.34
2023-03-06T10:24:05.804Z,97977.84
2023-03-06T10:26:41.784Z,97963.78
2023-03-06T10:29:12.130Z,97985.78
2023-03-06T10:31:42.718Z,97984.25
2023-03-06T10:34:15.242Z,97996.22
2023-03-06T10:36:42.366Z,97981.94
2023-03-06T10:39:29.848Z,97999.13
2023-03-06T10:41:57.127Z,97979.84
2023-03-06T10:44:24.820Z,97966.41
2023-03-06T10:46:53.736Z,97978.97
2023-03-06T10:49:26.659Z,97978.16
2023-03-06T10:52:02.861Z,97984.16
2023-03-06T10:54:33.134Z,97988.91
2023-03-06T10:57:20.287Z,98002.84
2023-03-06T11:00:01.962Z,97986.41
2023-03-06T11:02:33.292Z,97973.81
2023-03-06T11:05:01.440Z,97984.94
2023-03-06T11:07:30.371Z,97984.59
2023-03-06T11:09:57.382Z,98005.88
2023-03-06T11:12:27.023Z,98005.88
2023-03-06T11:15:14.442Z,97999.06
2023-03-06T11:17:52.718Z,97989.72
2023-03-06T11:20:51.438Z,98005.31
2023-03-06T11:23:29.658Z,97989.38
2023-03-06T11:26:15.420Z,98009.81
2023-03-06T11:29:04.699Z,98000.88
2023-03-06T11:31:36.492Z,98001.97
2023-03-06T11:34:21.136Z,97998.56
2023-03-06T11:37:03.656Z,98001.47
2023-03-06T11:39:53.659Z,98004.13
2023-03-06T11:42:28.761Z,98002.19
2023-03-06T11:45:24.913Z,98008.19
2023-03-06T11:48:02.963Z,97995.56
2023-03-06T11:50:39.415Z,98002.59
2023-03-06T11:53:11.358Z,97980.69
2023-03-06T11:55:56.409Z,97999.94
2023-03-06T11:58:53.847Z,97991.47
2023-03-06T12:01:39.443Z,97996.69
2023-03-06T12:04:21.676Z,98012.00
2023-03-06T12:07:22.453Z,97988.75
2023-03-06T12:10:37.118Z,98006.00
2023-03-06T12:13:17.129Z,97995.22
2023-03-06T12:15:49.731Z,97992.28
2023-03-06T12:18:19.593Z,98011.66
2023-03-06T12:21:23.972Z,98010.53
2023-03-06T12:23:53.686Z,97991.53
2023-03-06T12:26:32.752Z,98003.00
2023-03-06T12:29:02.360Z,98006.84
2023-03-06T12:31:36.175Z,98010.66
2023-03-06T12:34:27.044Z,98008.72
2023-03-06T12:37:18.474Z,97999.81
2023-03-06T12:40:38.160Z,98017.63
2023-03-06T12:43:17.043Z,98040.84
2023-03-06T12:45:45.144Z,98036.41
2023-03-06T12:48:21.074Z,98026.72
2023-03-06T12:50:49.837Z,98040.88
2023-03-06T12:53:31.911Z,98043.09
2023-03-06T12:56:01.820Z,98040.81
2023-03-06T12:58:28.712Z,98043.78
2023-03-06T13:01:05.028Z,98036.59
2023-03-06T13:03:50.658Z,98042.19
2023-03-06T13:06:51.613Z,98025.91
2023-03-06T13:09:42.727Z,98033.03
2023-03-06T13:12:21.985Z,98041.47
2023-03-06T13:14:56.517Z,98044.84
2023-03-06T13:17:33.549Z,98054.16
2023-03-06T13:20:15.784Z,98039.25
2023-03-06T13:22:45.241Z,98054.38
2023-03-06T13:25:21.075Z,98031.78
2023-03-06T13:27:54.347Z,98038.78
2023-03-06T13:30:36.693Z,98050.41
2023-03-06T13:33:24.013Z,98041.53
2023-03-06T13:35:58.934Z,98048.94
2023-03-06T13:38:36.758Z,98039.28
2023-03-06T13:41:22.114Z,98046.00
2023-03-06T13:43:52.963Z,98043.00
2023-03-06T13:46:22.175Z,98066.09
2023-03-06T13:49:03.173Z,98058.28
2023-03-06T13:51:35.540Z,98042.25
2023-03-06T13:54:37.953Z,98050.84
2023-03-06T13:57:26.618Z,98050.84
2023-03-06T14:00:13.865Z,98044.13
2023-03-06T14:03:02.091Z,98036.28
2023-03-06T14:05:51.272Z,98055.59
2023-03-06T14:08:21.770Z,98051.00
2023-03-06T14:11:00.670Z,98043.25
2023-03-06T14:13:45.255Z,98062.38
2023-03-06T14:16:49.295Z,98064.34
2023-03-06T14:19:19.040Z,98073.28
2023-03-06T14:21:48.368Z,98059.50
2023-03-06T14:24:28.465Z,98065.03
2023-03-06T14:26:55.497Z,98069.00
2023-03-06T14:29:27.793Z,98086.66
2023-03-06T14:31:57.694Z,98080.78
2023-03-06T14:34:29.885Z,98065.13
2023-03-06T14:37:02.028Z,98095.44
2023-03-06T14:39:44.154Z,98081.28
2023-03-06T14:42:25.467Z,98093.84
2023-03-06T14:45:16.594Z,98086.97
2023-03-06T14:47:49.702Z,98110.84
2023-03-06T14:50:23.026Z,98087.50
2023-03-06T14:53:12.773Z,98064.91
2023-03-06T14:55:48.220Z,98080.88
2023-03-06T14:58:45.047Z,98099.13
2023-03-06T15:01:15.472Z,98104.75
2023-03-06T15:03:47.936Z,98107.94
2023-03-06T15:06:22.600Z,98101.94
2023-03-06T15:09:17.080Z,98132.72
2023-03-06T15:11:54.065Z,98131.91
2023-03-06T15:14:29.710Z,98107.75
2023-03-06T15:17:45.011Z,98139.97
2023-03-06T15:20:36.725Z,98142.00
2023-03-06T15:23:13.511Z,98142.78
2023-03-06T15:25:40.694Z,98133.91
2023-03-06T15:28:31.981Z,98136.91
2023-03-06T15:31:26.460Z,98141.13
2023-03-06T15:34:08.774Z,98142.97
2023-03-06T15:36:41.150Z,98160.38
2023-03-06T15:39:27.919Z,98162.94
2023-03-06T15:41:59.140Z,98150.13
2023-03-06T15:44:26.586Z,98184.94
2023-03-06T15:46:59.219Z,98163.22
2023-03-06T15:49:33.633Z,98174.44
2023-03-06T15:52:00.800Z,98183.75
2023-03-06T15:54:27.838Z,98181.38
2023-03-06T15:56:54.792Z,98200.66
2023-03-06T15:59:27.869Z,98190.41
2023-03-06T16:01:54.866Z,98211.13
2023-03-06T16:04:21.927Z,98171.50
2023-03-06T16:06:49.090Z,98186.44
2023-03-06T16:09:16.105Z,98206.50
2023-03-06T16:11:44.481Z,98202.28
2023-03-06T16:14:21.762Z,98195.88
2023-03-06T16:16:49.905Z,98207.59
2023-03-06T16:19:25.942Z,98206.22
2023-03-06T16:21:55.158Z,98208.69
2023-03-06T16:24:22.793Z,98195.66
2023-03-06T16:26:52.271Z,98229.78
2023-03-06T16:29:21.817Z,98198.94
2023-03-06T16:31:49.173Z,98214.50
2023-03-06T16:34:16.850Z,98192.41
2023-03-06T16:36:47.140Z,98195.75
2023-03-06T16:39:16.754Z,98212.09
2023-03-06T16:41:44.470Z,98228.94
2023-03-06T16:44:11.612Z,98224.72
2023-03-06T16:46:41.919Z,98209.09
2023-03-06T16:49:17.712Z,98229.66
2023-03-06T16:51:45.784Z,98216.91
2023-03-06T16:54:13.461Z,98226.19
2023-03-06T16:56:40.662Z,98231.50
2023-03-06T16:59:07.998Z,98234.28
2023-03-06T17:01:35.406Z,98215.44
2023-03-06T17:04:02.687Z,98247.47
2023-03-06T17:06:29.903Z,98234.28
2023-03-06T17:08:56.925Z,98249.44
2023-03-06T17:11:27.155Z,98237.13
2023-03-06T17:13:54.076Z,98236.13
2023-03-06T17:16:21.376Z,98246.47
2023-03-06T17:18:48.422Z,98236.69
2023-03-06T17:21:15.388Z,98247.38
2023-03-06T17:23:42.735Z,98245.19
2023-03-06T17:26:13.646Z,98252.13
2023-03-06T17:28:48.887Z,98232.34
2023-03-06T17:31:21.897Z,98271.38
2023-03-06T17:33:49.244Z,98266.00
2023-03-06T17:36:17.800Z,98256.00
2023-03-06T17:38:45.543Z,98267.69
2023-03-06T17:41:12.706Z,98242.34
2023-03-06T17:43:42.344Z,98262.66
2023-03-06T17:46:11.973Z,98265.84
2023-03-06T17:48:43.007Z,98266.31
2023-03-06T17:51:10.149Z,98271.78
2023-03-06T17:53:37.924Z,98286.78
2023-03-06T17:56:07.021Z,98283.78
2023-03-06T17:58:36.503Z,98285.50
2023-03-06T18:01:18.836Z,98273.47
2023-03-06T18:03:47.527Z,98283.41
2023-03-06T18:06:15.482Z,98255.59
2023-03-06T18:08:42.485Z,98279.22
2023-03-06T18:11:11.433Z,98265.13
2023-03-06T18:13:40.963Z,98285.84
2023-03-06T18:16:09.871Z,98292.16
2023-03-06T18:18:36.802Z,98307.13
2023-03-06T18:21:09.161Z,98297.66
2023-03-06T18:23:41.637Z,98290.13
2023-03-06T18:26:16.083Z,98304.31
2023-03-06T18:28:46.087Z,98299.66
2023-03-06T18:31:23.160Z,98287.97
2023-03-06T18:33:52.283Z,98313.69
2023-03-06T18:36:19.821Z,98292.38
2023-03-06T18:38:46.876Z,98291.22
2023-03-06T18:41:14.168Z,98321.44
2023-03-06T18:43:42.346Z,98310.81
2023-03-06T18:46:09.984Z,98286.09
2023-03-06T18:48:37.595Z,98314.91
2023-03-06T18:51:09.846Z,98302.03
2023-03-06T18:53:37.126Z,98315.34
2023-03-06T18:56:05.410Z,98316.31
2023-03-06T18:58:32.854Z,98359.69
2023-03-06T19:01:00.004Z,98329.06
2023-03-06T19:03:27.344Z,98328.09
2023-03-06T19:05:54.254Z,98299.50
2023-03-06T19:08:21.255Z,98339.13
2023-03-06T19:10:48.140Z,98323.56
2023-03-06T19:13:15.277Z,98328.94
2023-03-06T19:15:47.200Z,98359.38
2023-03-06T19:18:16.745Z,98327.03
2023-03-06T19:20:45.047Z,98349.78
2023-03-06T19:23:11.965Z,98370.00
2023-03-06T19:25:38.964Z,98328.75
2023-03-06T19:28:06.077Z,98371.16
2023-03-06T19:30:33.028Z,98381.69
2023-03-06T19:33:02.695Z,98359.78
2023-03-06T19:35:29.822Z,98370.44
2023-03-06T19:37:56.728Z,98357.19
2023-03-06T19:40:23.781Z,98354.13
2023-03-06T19:42:50.829Z,98354.16
2023-03-06T19:45:18.002Z,98377.53
2023-03-06T19:47:45.005Z,98346.97
2023-03-06T19:50:12.047Z,98382.75
2023-03-06T19:52:42.353Z,98393.66
2023-03-06T19:55:11.147Z,98360.13
2023-03-06T19:57:38.019Z,98381.06
2023-03-06T20:00:05.896Z,98386.88
2023-03-06T20:02:39.715Z,98368.03
2023-03-06T20:05:09.249Z,98396.66
2023-03-06T20:07:36.382Z,98372.09
2023-03-06T20:10:03.562Z,98384.84
2023-03-06T20:12:30.579Z,98382.88
2023-03-06T20:14:57.694Z,98383.72
2023-03-06T20:17:24.681Z,98386.75
2023-03-06T20:19:51.794Z,98383.50
2023-03-06T20:22:18.725Z,98388.63
2023-03-06T20:24:46.189Z,98384.78
2023-03-06T20:27:13.111Z,98396.16
2023-03-06T20:29:39.970Z,98384.75
2023-03-06T20:32:06.909Z,98383.22
2023-03-06T20:34:33.781Z,98405.16
2023-03-06T20:37:00.608Z,98369.03
2023-03-06T20:39:27.677Z,98401.06
2023-03-06T20:41:54.731Z,98396.94
2023-03-06T20:44:21.738Z,98395.78
2023-03-06T20:46:48.899Z,98388.63
2023-03-06T20:49:19.770Z,98370.16
2023-03-06T20:51:48.584Z,98389.81
2023-03-06T20:54:19.022Z,98389.22
2023-03-06T20:56:48.746Z,98395.03
2023-03-06T20:59:15.905Z,98400.44
2023-03-06T21:01:45.236Z,98407.72
2023-03-06T21:04:14.469Z,98383.84
2023-03-06T21:06:42.962Z,98406.72
2023-03-06T21:09:11.026Z,98414.41
2023-03-06T21:11:38.150Z,98407.94
2023-03-06T21:14:05.178Z,98395.81
2023-03-06T21:16:33.549Z,98418.91
2023-03-06T21:19:02.823Z,98414.38
2023-03-06T21:21:34.826Z,98415.47
2023-03-06T21:24:03.204Z,98426.53
2023-03-06T21:26:32.037Z,98400.38
2023-03-06T21:28:59.220Z,98441.50
2023-03-06T21:31:27.257Z,98418.63
2023-03-06T21:33:54.928Z,98410.47
2023-03-06T21:36:22.354Z,98425.03
2023-03-06T21:38:51.062Z,98481.78
2023-03-06T21:41:19.557Z,98433.06
2023-03-06T21:43:47.084Z,98410.19
2023-03-06T21:46:17.058Z,98439.66
2023-03-06T21:48:44.379Z,98417.13
2023-03-06T21:51:16.146Z,98434.59
2023-03-06T21:53:44.168Z,98409.75
2023-03-06T21:56:12.506Z,98435.22
2023-03-06T21:58:40.086Z,98416.88
2023-03-06T22:01:19.773Z,98425.91
2023-03-06T22:03:47.001Z,98430.16
2023-03-06T22:06:16.976Z,98432.63
2023-03-06T22:08:44.465Z,98443.81
2023-03-06T22:11:14.217Z,98424.81
2023-03-06T22:13:42.336Z,98444.41
2023-03-06T22:16:09.629Z,98441.06
2023-03-06T22:18:37.198Z,98448.22
2023-03-06T22:21:09.743Z,98466.22
2023-03-06T22:23:37.386Z,98437.59
2023-03-06T22:26:10.446Z,98422.84
2023-03-06T22:28:37.584Z,98436.47
2023-03-06T22:31:06.029Z,98438.84
2023-03-06T22:33:33.171Z,98444.53
2023-03-06T22:36:01.926Z,98407.47
2023-03-06T22:38:28.973Z,98456.13
2023-03-06T22:40:59.212Z,98456.41
2023-03-06T22:43:26.236Z,98437.59
2023-03-06T22:45:53.453Z,98472.59
2023-03-06T22:48:21.005Z,98458.69
2023-03-06T22:50:47.912Z,98459.72
2023-03-06T22:53:15.154Z,98458.69
2023-03-06T22:55:42.046Z,98456.66
2023-03-06T22:58:09.204Z,98444.25
2023-03-06T23:00:36.155Z,98452.25
2023-03-06T23:03:03.431Z,98466.59
2023-03-06T23:05:30.422Z,98457.38
2023-03-06T23:07:57.393Z,98466.44
2023-03-06T23:10:24.544Z,98461.47
2023-03-06T23:13:10.191Z,98464.81
2023-03-06T23:15:55.637Z,98421.63
2023-03-06T23:18:41.762Z,98446.16
2023-03-06T23:21:27.171Z,98441.00
2023-03-06T23:24:12.852Z,98462.63
2023-03-06T23:26:39.892Z,98459.13
2023-03-06T23:29:06.808Z,98460.97
2023-03-06T23:31:33.840Z,98458.88
2023-03-06T23:34:02.677Z,98447.97
2023-03-06T23:36:30.748Z,98474.13
2023-03-06T23:38:58.060Z,98452.06
2023-03-06T23:41:25.142Z,98468.53
2023-03-06T23:43:54.929Z,98473.84
2023-03-06T23:46:22.612Z,98456.28
2023-03-06T23:48:49.575Z,98481.53
2023-03-06T23:51:19.350Z,98501.78
2023-03-06T23:53:47.545Z,98471.06
2023-03-06T23:56:15.027Z,98461.59
2023-03-06T23:58:41.930Z,98479.28
